Flight Track Log - Related Links

Times and Time Zones

All times are in EDT time to prevent confusion due to time zone crossing. See the UAL395 flight status page for this flight to view local times or setup timezone preferences in your user account.

Time Position Orientation Groundspeed Altitude Reporting Facility
EDT Latitude Longitude Course Direction KTS MPH feet Rate Location/Type
Sat 06:29:48 PM 41.9840 -87.8920 90° East 164 189 700  Level FlightAware ADS-B
Sat 06:29:56 PM 41.9830 -87.8840 100° East 152 175 1,300 4,000 Climbing FlightAware ADS-B
Sat 06:30:00 PM 41.9820 -87.8800 109° East 152 175 1,500 2,308 Climbing FlightAware ADS-B
Sat 06:30:09 PM 41.9780 -87.8730 128° Southeast 160 184 1,800 2,118 Climbing FlightAware ADS-B
Sat 06:30:17 PM 41.9740 -87.8680 137° Southeast 170 196 2,100 2,000 Climbing FlightAware ADS-B
Sat 06:30:36 PM 41.9600 -87.8540 143° Southeast 204 235 2,700 2,308 Climbing FlightAware ADS-B
Sat 06:30:56 PM 41.9440 -87.8360 140° Southeast 227 261 3,600 2,700 Climbing FlightAware ADS-B
Sat 06:31:16 PM 41.9270 -87.8170 140° Southeast 248 285 4,500 1,467 Climbing FlightAware ADS-B
Sat 06:31:41 PM 41.9030 -87.7930 143° Southeast 264 304 4,700 316 Climbing FlightAware ADS-B
Sat 06:31:54 PM 41.8870 -87.7880 167° South 266 306 4,700  Level FlightAware ADS-B
Sat 06:32:22 PM 41.8550 -87.7880 180° South 266 306 4,700  Level FlightAware ADS-B
Sat 06:32:42 PM 41.8310 -87.7870 178° South 265 305 4,700 682 Level FlightAware ADS-B
Sat 06:33:06 PM 41.8010 -87.7870 180° South 269 310 5,200 2,875 Climbing FlightAware ADS-B
Sat 06:33:30 PM 41.7690 -87.7880 181° South 264 304 7,000 4,200 Climbing FlightAware ADS-B
Sat 06:33:46 PM 41.7490 -87.7930 191° South 275 316 8,000 3,375 Climbing FlightAware ADS-B
Sat 06:34:02 PM 41.7310 -87.8030 203° Southwest 285 328 8,800 3,522 Climbing FlightAware ADS-B
Sat 06:34:32 PM 41.6960 -87.8290 209° Southwest 294 338 10,700 3,529 Climbing FlightAware ADS-B
Sat 06:35:10 PM 41.6490 -87.8630 208° Southwest 308 354 12,800 2,743 Climbing FlightAware ADS-B
Sat 06:35:42 PM 41.6060 -87.8920 207° Southwest 345 397 13,900 2,522 Climbing FlightAware ADS-B
Sat 06:36:19 PM 41.5520 -87.9300 208° Southwest 363 418 15,700 2,712 Climbing FlightAware ADS-B
Sat 06:36:55 PM 41.4960 -87.9680 207° Southwest 387 445 17,200 2,789 Climbing FlightAware ADS-B
Sat 06:37:30 PM 41.4390 -88.0070 207° Southwest 395 455 19,000 3,000 Climbing FlightAware ADS-B
Sat 06:38:03 PM 41.3850 -88.0370 203° Southwest 400 460 20,600 2,400 Climbing FlightAware ADS-B
Sat 06:38:40 PM 41.3140 -88.0610 194° South 424 488 21,800 2,500 Climbing FlightAware ADS-B
Sat 06:39:15 PM 41.2490 -88.0840 195° South 423 487 23,600 2,366 Climbing FlightAware ADS-B
Sat 06:39:51 PM 41.1790 -88.1040 192° South 440 506 24,600 2,559 Climbing FlightAware ADS-B
Sat 06:40:23 PM 41.1150 -88.1210 191° South 430 495 26,500 2,382 Climbing FlightAware ADS-B
Sat 06:40:59 PM 41.0450 -88.1410 192° South 450 518 27,300 1,973 Climbing FlightAware ADS-B
Sat 06:41:36 PM 40.9660 -88.1630 192° South 451 519 28,900 2,143 Climbing FlightAware ADS-B
Sat 06:42:09 PM 40.9000 -88.1820 192° South 458 527 29,800 1,739 Climbing FlightAware ADS-B
Sat 06:42:45 PM 40.8250 -88.2030 192° South 465 535 30,900 2,174 Climbing FlightAware ADS-B
Sat 06:43:18 PM 40.7540 -88.2250 193° South 459 528 32,300 2,366 Climbing FlightAware ADS-B
Sat 06:43:56 PM 40.6760 -88.2480 193° South 455 524 33,700 2,087 Climbing FlightAware ADS-B
Sat 06:44:27 PM 40.6140 -88.2650 192° South 452 520 34,700 1,970 Climbing FlightAware ADS-B
Sat 06:45:03 PM 40.5400 -88.2860 192° South 440 506 35,900 1,068 Climbing FlightAware ADS-B
Sat 06:45:40 PM 40.4690 -88.3060 192° South 433 498 36,000 81 Climbing FlightAware ADS-B
Sat 06:46:17 PM 40.3980 -88.3250 192° South 433 498 36,000  Level FlightAware ADS-B
Sat 06:46:49 PM 40.3310 -88.3460 193° South 440 506 36,000  Level FlightAware ADS-B
Sat 06:47:23 PM 40.2710 -88.3830 205° Southwest 442 509 36,000  Level FlightAware ADS-B
Sat 06:48:01 PM 40.2040 -88.4320 209° Southwest 441 507 36,000  Level FlightAware ADS-B
Sat 06:48:34 PM 40.1440 -88.4760 209° Southwest 439 505 36,000  Level FlightAware ADS-B
Sat 06:49:09 PM 40.0830 -88.5210 209° Southwest 439 505 36,000  Level FlightAware ADS-B
Sat 06:49:43 PM 40.0210 -88.5680 210° Southwest 440 506 36,000  Level FlightAware ADS-B
Sat 06:50:19 PM 39.9600 -88.6120 209° Southwest 440 506 36,000  Level FlightAware ADS-B
Sat 06:50:55 PM 39.8950 -88.6600 210° Southwest 439 505 36,000  Level FlightAware ADS-B
Sat 06:51:29 PM 39.8400 -88.7010 210° Southwest 438 504 36,000  Level FlightAware ADS-B
Sat 06:52:05 PM 39.7730 -88.7500 209° Southwest 438 504 36,000  Level FlightAware ADS-B
Sat 06:52:39 PM 39.7110 -88.7950 209° Southwest 438 504 36,000  Level FlightAware ADS-B
Sat 06:53:15 PM 39.6470 -88.8420 209° Southwest 436 502 36,000  Level FlightAware ADS-B
Sat 06:53:51 PM 39.5840 -88.8870 209° Southwest 436 502 36,000  Level FlightAware ADS-B
Sat 06:54:27 PM 39.5210 -88.9330 209° Southwest 436 502 36,000  Level FlightAware ADS-B
Sat 06:54:59 PM 39.4660 -88.9730 209° Southwest 436 502 36,000  Level FlightAware ADS-B
Sat 06:55:37 PM 39.3960 -89.0240 209° Southwest 436 502 36,000  Level FlightAware ADS-B
Sat 06:56:09 PM 39.3400 -89.0640 209° Southwest 437 503 36,000  Level FlightAware ADS-B
Sat 06:56:43 PM 39.2790 -89.1080 209° Southwest 437 503 36,000  Level FlightAware ADS-B
Sat 06:57:18 PM 39.2230 -89.1490 210° Southwest 438 504 36,000  Level FlightAware ADS-B
Sat 06:57:55 PM 39.1540 -89.1980 209° Southwest 439 505 36,000  Level FlightAware ADS-B
Sat 06:58:31 PM 39.0890 -89.2450 209° Southwest 440 506 36,000  Level FlightAware ADS-B
Sat 06:59:07 PM 39.0250 -89.2900 209° Southwest 440 506 36,000  Level FlightAware ADS-B
Sat 06:59:40 PM 38.9660 -89.3320 209° Southwest 441 507 36,000  Level FlightAware ADS-B
Sat 07:00:15 PM 38.9040 -89.3770 209° Southwest 440 506 36,000  Level FlightAware ADS-B
Sat 07:00:51 PM 38.8400 -89.4220 209° Southwest 440 506 36,000  Level FlightAware ADS-B
Sat 07:01:27 PM 38.7760 -89.4670 209° Southwest 441 507 36,000  Level FlightAware ADS-B
Sat 07:02:02 PM 38.7120 -89.5120 209° Southwest 442 509 36,000  Level FlightAware ADS-B
Sat 07:02:38 PM 38.6470 -89.5580 209° Southwest 443 510 36,000  Level FlightAware ADS-B
Sat 07:03:09 PM 38.5920 -89.5970 209° Southwest 443 510 36,000  Level FlightAware ADS-B
Sat 07:03:45 PM 38.5290 -89.6410 209° Southwest 444 511 36,000  Level FlightAware ADS-B
Sat 07:04:21 PM 38.4620 -89.6880 209° Southwest 445 512 36,000  Level FlightAware ADS-B
Sat 07:04:56 PM 38.4000 -89.7310 209° Southwest 445 512 36,000  Level FlightAware ADS-B
Sat 07:05:31 PM 38.3360 -89.7760 209° Southwest 446 513 36,000  Level FlightAware ADS-B
Sat 07:06:05 PM 38.2740 -89.8190 209° Southwest 447 514 36,000  Level FlightAware ADS-B
Sat 07:06:42 PM 38.2070 -89.8660 209° Southwest 447 514 36,000  Level FlightAware ADS-B
Sat 07:07:15 PM 38.1490 -89.9070 209° Southwest 447 514 36,000  Level FlightAware ADS-B
Sat 07:07:51 PM 38.0820 -89.9530 208° Southwest 447 514 36,000  Level FlightAware ADS-B
Sat 07:08:27 PM 38.0170 -89.9970 208° Southwest 447 514 36,000  Level FlightAware ADS-B
Sat 07:09:03 PM 37.9520 -90.0430 209° Southwest 446 513 36,000  Level FlightAware ADS-B
Sat 07:09:36 PM 37.8920 -90.0840 208° Southwest 446 513 36,000  Level FlightAware ADS-B
Sat 07:10:10 PM 37.8310 -90.1260 209° Southwest 446 513 36,000  Level FlightAware ADS-B
Sat 07:10:49 PM 37.7710 -90.1670 208° Southwest 446 513 36,000 716 Level FlightAware ADS-B
Sat 07:11:17 PM 37.7090 -90.2100 209° Southwest 438 504 36,800 706 Climbing FlightAware ADS-B
Sat 07:11:57 PM 37.6480 -90.2500 207° Southwest 438 504 36,800 1,059 Level FlightAware ADS-B
Sat 07:12:25 PM 37.5850 -90.2760 198° South 437 503 38,000 1,043 Climbing FlightAware ADS-B
Sat 07:13:06 PM 37.5080 -90.3120 200° South 439 505 38,000  Level FlightAware ADS-B
Sat 07:13:39 PM 37.4430 -90.3420 200° South 439 505 38,000  Level FlightAware ADS-B
Sat 07:14:24 PM 37.3660 -90.3780 200° South 439 505 38,000  Level FlightAware ADS-B
Sat 07:14:59 PM 37.2900 -90.4130 200° South 439 505 38,000  Level FlightAware ADS-B
Sat 07:15:35 PM 37.2220 -90.4450 201° Southwest 439 505 38,000  Level FlightAware ADS-B
Sat 07:16:11 PM 37.1530 -90.4770 200° South 439 505 38,000  Level FlightAware ADS-B
Sat 07:16:43 PM 37.0920 -90.5050 200° South 440 506 38,000  Level FlightAware ADS-B
Sat 07:17:19 PM 37.0230 -90.5370 200° South 439 505 38,000  Level FlightAware ADS-B
Sat 07:17:55 PM 36.9540 -90.5690 200° South 440 506 38,000  Level FlightAware ADS-B
Sat 07:18:31 PM 36.8860 -90.6010 201° Southwest 440 506 38,000  Level FlightAware ADS-B
Sat 07:19:03 PM 36.8250 -90.6280 200° South 440 506 38,000  Level FlightAware ADS-B
Sat 07:19:39 PM 36.7560 -90.6600 200° South 440 506 38,000  Level FlightAware ADS-B
Sat 07:20:15 PM 36.6880 -90.6910 200° South 440 506 38,000  Level FlightAware ADS-B
Sat 07:20:45 PM 36.6300 -90.7180 200° South 439 505 38,000  Level FlightAware ADS-B
Sat 07:21:23 PM 36.5570 -90.7510 200° South 440 506 38,000  Level FlightAware ADS-B
Sat 07:21:58 PM 36.4990 -90.7770 200° South 440 506 38,000  Level FlightAware ADS-B
Sat 07:22:35 PM 36.4220 -90.8130 201° Southwest 441 507 38,000  Level FlightAware ADS-B
Sat 07:23:07 PM 36.3600 -90.8410 200° South 441 507 38,000  Level FlightAware ADS-B
Sat 07:23:43 PM 36.2890 -90.8730 200° South 442 509 38,000  Level FlightAware ADS-B
Sat 07:24:19 PM 36.2180 -90.9050 200° South 444 511 38,000  Level FlightAware ADS-B
Sat 07:24:51 PM 36.1580 -90.9320 200° South 445 512 38,000  Level FlightAware ADS-B
Sat 07:25:27 PM 36.0950 -90.9680 205° Southwest 444 511 38,000  Level FlightAware ADS-B
Sat 07:26:03 PM 36.0290 -91.0240 214° Southwest 444 511 38,000  Level FlightAware ADS-B
Sat 07:26:45 PM 35.9700 -91.0750 215° Southwest 444 511 38,000  Level FlightAware ADS-B
Sat 07:27:21 PM 35.9180 -91.1190 214° Southwest 444 511 38,000  Level FlightAware ADS-B
Sat 07:27:57 PM 35.8670 -91.1640 216° Southwest 444 511 38,000  Level FlightAware ADS-B
Sat 07:28:29 PM 35.7900 -91.2330 216° Southwest 443 510 38,000  Level FlightAware ADS-B
Sat 07:29:05 PM 35.7270 -91.2870 215° Southwest 443 510 38,000  Level FlightAware ADS-B
Sat 07:29:41 PM 35.6670 -91.3390 215° Southwest 443 510 38,000  Level FlightAware ADS-B
Sat 07:30:22 PM 35.6070 -91.3890 214° Southwest 443 510 38,000  Level FlightAware ADS-B
Sat 07:30:57 PM 35.5370 -91.4510 216° Southwest 443 510 38,000  Level FlightAware ADS-B
Sat 07:31:42 PM 35.4690 -91.5090 215° Southwest 443 510 38,000  Level FlightAware ADS-B
Sat 07:32:17 PM 35.4020 -91.5660 215° Southwest 445 512 38,000  Level FlightAware ADS-B
Sat 07:33:02 PM 35.3350 -91.6240 215° Southwest 445 512 38,000  Level FlightAware ADS-B
Sat 07:33:39 PM 35.2820 -91.6700 215° Southwest 445 512 38,000  Level FlightAware ADS-B
Sat 07:34:15 PM 35.2110 -91.7290 214° Southwest 445 512 38,000  Level FlightAware ADS-B
Sat 07:34:51 PM 35.1580 -91.7720 214° Southwest 445 512 38,000  Level FlightAware ADS-B
Sat 07:35:27 PM 35.1060 -91.8150 214° Southwest 445 512 38,000  Level FlightAware ADS-B
Sat 07:36:11 PM 35.0150 -91.8950 216° Southwest 444 511 38,000  Level FlightAware ADS-B
Sat 07:36:47 PM 34.9630 -91.9380 214° Southwest 444 511 38,000  Level FlightAware ADS-B
Sat 07:37:24 PM 34.9090 -91.9820 214° Southwest 444 511 38,000  Level FlightAware ADS-B
Sat 07:38:00 PM 34.8570 -92.0250 214° Southwest 444 511 38,000  Level FlightAware ADS-B
Sat 07:38:48 PM 34.7880 -92.0820 214° Southwest 444 511 38,000  Level FlightAware ADS-B
Sat 07:39:24 PM 34.7360 -92.1250 214° Southwest 444 511 38,000  Level FlightAware ADS-B
Sat 07:40:00 PM 34.6840 -92.1680 214° Southwest 444 511 38,000  Level FlightAware ADS-B
Sat 07:40:36 PM 34.6310 -92.2110 214° Southwest 444 511 38,000  Level FlightAware ADS-B
Sat 07:41:12 PM 34.5790 -92.2530 214° Southwest 444 511 38,000  Level FlightAware ADS-B
Sat 07:41:48 PM 34.5270 -92.2960 214° Southwest 444 511 38,000  Level FlightAware ADS-B
Sat 07:42:24 PM 34.4750 -92.3390 214° Southwest 444 511 38,000  Level FlightAware ADS-B
Sat 07:43:01 PM 34.4210 -92.3820 213° Southwest 444 511 38,000  Level FlightAware ADS-B
Sat 07:43:38 PM 34.3680 -92.4260 214° Southwest 444 511 38,000  Level FlightAware ADS-B
Sat 07:44:14 PM 34.3160 -92.4690 214° Southwest 444 511 38,000  Level FlightAware ADS-B
Sat 07:44:50 PM 34.2640 -92.5110 214° Southwest 444 511 38,000  Level FlightAware ADS-B
Sat 07:45:26 PM 34.2120 -92.5540 214° Southwest 444 511 38,000  Level FlightAware ADS-B
Sat 07:47:48 PM 33.6650 -92.3700 164° South 38,000  Level FlightAware ADS-B
Sat 07:49:13 PM 33.5020 -92.4000 189° South 430 495 38,000  Level FlightAware ADS-B
Sat 07:49:52 PM 33.4200 -92.4150 189° South 430 495 38,000  Level FlightAware ADS-B
Sat 07:50:28 PM 33.3490 -92.4280 189° South 431 496 38,000  Level FlightAware ADS-B
Sat 07:51:02 PM 33.2850 -92.4400 189° South 431 496 38,000  Level FlightAware ADS-B
Sat 07:51:37 PM 33.2130 -92.4530 189° South 430 495 38,000  Level FlightAware ADS-B
Sat 07:52:12 PM 33.1450 -92.4660 189° South 429 494 38,000  Level FlightAware ADS-B
Sat 07:52:42 PM 33.1420 -92.4660 180° South 429 494 38,000  Level FlightAware ADS-B
Sat 07:54:16 PM 32.9060 -92.5090 189° South 429 494 38,000  Level FlightAware ADS-B
Sat 07:54:52 PM 32.8460 -92.5210 190° South 429 494 38,000  Level FlightAware ADS-B
Sat 07:55:28 PM 32.7860 -92.5320 189° South 429 494 38,000  Level FlightAware ADS-B
Sat 07:56:04 PM 32.9010 -92.5100 North 426 490 38,000  Level FlightAware ADS-B
Sat 07:56:39 PM 32.6200 -92.5610 189° South 423 487 38,000  Level FlightAware ADS-B
Sat 07:57:10 PM 32.5610 -92.5720 189° South 423 487 38,000  Level FlightAware ADS-B
Sat 07:57:45 PM 32.4940 -92.5840 189° South 423 487 38,000  Level FlightAware ADS-B
Sat 07:58:25 PM 32.4140 -92.5980 188° South 419 482 38,000  Level FlightAware ADS-B
Sat 07:59:00 PM 32.3490 -92.6100 189° South 416 479 38,000  Level FlightAware ADS-B
Sat 07:59:16 PM 32.3156 -92.6158 188° South 414 476 38,000  Level FlightAware ADS-B
Sat 08:00:05 PM 32.2330 -92.6310 189° South 412 474 38,000  Level FlightAware ADS-B
Sat 08:00:28 PM 32.1804 -92.6400 188° South 414 476 38,000  Level FlightAware ADS-B
Sat 08:01:25 PM 32.0790 -92.6580 189° South 408 470 38,000 -222 Level FlightAware ADS-B
Sat 08:02:16 PM 31.9940 -92.6740 189° South 407 468 37,600 -1,412 Descending FlightAware ADS-B
Sat 08:02:50 PM 31.9300 -92.7190 211° Southwest 398 458 36,000 -1,579 Descending FlightAware ADS-B
Sat 08:03:32 PM 31.8750 -92.7710 219° Southwest 401 461 35,600 -769 Descending FlightAware ADS-B
Sat 08:04:08 PM 31.8260 -92.8200 220° Southwest 408 470 35,000 -474 Descending FlightAware ADS-B
Sat 08:04:48 PM 31.8140 -92.8320 220° Southwest 411 473 35,000  Level FlightAware ADS-B
Sat 08:05:20 PM 31.7150 -92.9270 219° Southwest 415 478 35,000  Level FlightAware ADS-B
Sat 08:05:59 PM 31.6486 -92.9914 220° Southwest 414 476 35,000  Level FlightAware ADS-B
Sat 08:06:30 PM 31.6035 -93.0348 219° Southwest 414 476 35,000  Level FlightAware ADS-B
Sat 08:07:08 PM 31.5473 -93.0889 219° Southwest 414 476 35,000  Level FlightAware ADS-B
Sat 08:07:38 PM 31.5019 -93.1325 219° Southwest 413 475 35,000  Level FlightAware ADS-B
Sat 08:08:09 PM 31.4571 -93.1756 219° Southwest 412 474 35,000  Level FlightAware ADS-B
Sat 08:08:39 PM 31.4122 -93.2185 219° Southwest 412 474 35,000  Level FlightAware ADS-B
Sat 08:09:10 PM 31.3662 -93.2626 219° Southwest 411 473 35,000  Level FlightAware ADS-B
Sat 08:09:42 PM 31.3196 -93.3070 219° Southwest 413 475 35,000 -194 Level FlightAware ADS-B
Sat 08:10:12 PM 31.2745 -93.3502 219° Southwest 415 478 34,800 -1,000 Descending FlightAware ADS-B
Sat 08:10:42 PM 31.2295 -93.3930 219° Southwest 421 484 34,000 -1,645 Descending FlightAware ADS-B
Sat 08:11:14 PM 31.1816 -93.4385 219° Southwest 428 493 33,100 -1,875 Descending FlightAware ADS-B
Sat 08:11:46 PM 31.1305 -93.4871 219° Southwest 438 504 32,000 -2,031 Descending FlightAware ADS-B
Sat 08:12:19 PM 31.0780 -93.5372 219° Southwest 450 518 30,900 -1,688 Descending FlightAware ADS-B
Sat 08:12:50 PM 31.0291 -93.5834 219° Southwest 452 520 30,200 -1,161 Descending FlightAware ADS-B
Sat 08:13:21 PM 30.9784 -93.6316 219° Southwest 448 516 29,700 -984 Descending FlightAware ADS-B
Sat 08:13:51 PM 30.9302 -93.6770 219° Southwest 446 513 29,200 -1,000 Descending FlightAware ADS-B
Sat 08:14:21 PM 30.8818 -93.7227 219° Southwest 441 507 28,700 -984 Descending FlightAware ADS-B
Sat 08:14:52 PM 30.8337 -93.7680 219° Southwest 439 505 28,200 -984 Descending FlightAware ADS-B
Sat 08:15:22 PM 30.7856 -93.8131 219° Southwest 435 501 27,700 -1,082 Descending FlightAware ADS-B
Sat 08:15:53 PM 30.7386 -93.8574 219° Southwest 429 494 27,100 -1,869 Descending FlightAware ADS-B
Sat 08:16:23 PM 30.6926 -93.9008 219° Southwest 424 488 25,800 -2,700 Descending FlightAware ADS-B
Sat 08:16:53 PM 30.6462 -93.9444 219° Southwest 421 484 24,400 -2,730 Descending FlightAware ADS-B
Sat 08:19:21 PM 30.4249 -94.1513 219° Southwest 402 463 17,700 -2,607 Descending FlightAware ADS-B
Sat 08:20:04 PM 30.3648 -94.2080 221° Southwest 390 449 16,100 -2,791 Descending FlightAware ADS-B
Sat 08:20:47 PM 30.3110 -94.2756 230° Southwest 400 460 13,700 -2,795 Descending FlightAware ADS-B
Sat 08:21:17 PM 30.2790 -94.3278 235° Southwest 387 445 12,700 -1,670 Descending FlightAware ADS-B
Sat 08:22:24 PM 30.2142 -94.4352 235° Southwest 359 413 11,000 -1,487 Descending FlightAware ADS-B
Sat 08:23:10 PM 30.1719 -94.5048 235° Southwest 330 380 9,900 -1,082 Descending FlightAware ADS-B
Sat 08:23:25 PM 30.1592 -94.5250 234° Southwest 302 348 9,900 -2,000 Level FlightAware ADS-B
Sat 08:23:58 PM 30.1321 -94.5672 235° Southwest 298 343 8,300 -2,757 Descending FlightAware ADS-B
Sat 08:24:02 PM 30.1292 -94.5725 238° Southwest 295 339 8,200 -2,000 Descending FlightAware ADS-B
Sat 08:24:07 PM 30.1258 -94.5796 241° Southwest 291 335 8,000 -2,400 Descending FlightAware ADS-B
Sat 08:24:22 PM 30.1164 -94.6005 243° Southwest 289 333 7,400 -2,516 Descending FlightAware ADS-B
Sat 08:24:38 PM 30.1064 -94.6229 243° Southwest 300 345 6,700 -1,169 Descending FlightAware ADS-B
Sat 08:25:39 PM 30.0689 -94.7055 241° Southwest 273 314 5,900 -947 Descending FlightAware ADS-B
Sat 08:25:54 PM 30.0600 -94.7239 241° Southwest 273 314 5,500 -1,444 Descending FlightAware ADS-B
Sat 08:26:33 PM 30.0380 -94.7739 245° Southwest 269 310 4,600 -1,184 Descending FlightAware ADS-B
Sat 08:27:10 PM 30.0184 -94.8215 244° Southwest 267 307 4,000 -646 Descending FlightAware ADS-B
Sat 08:27:38 PM 30.0025 -94.8579 243° Southwest 273 314 3,900  Descending FlightAware ADS-B
Sat 08:28:09 PM 29.9854 -94.8976 244° Southwest 271 312 4,000 167 Climbing FlightAware ADS-B
Sat 08:28:14 PM 29.9828 -94.9046 247° West 270 311 4,000  Level FlightAware ADS-B
Sat 08:28:18 PM 29.9807 -94.9109 249° West 270 311 4,000  Level FlightAware ADS-B
Sat 08:28:21 PM 29.9796 -94.9150 253° West 271 312 4,000 250 Level FlightAware ADS-B
Sat 08:28:42 PM 29.9768 -94.9437 267° West 266 306 4,100  Climbing FlightAware ADS-B
Sat 08:28:46 PM 29.9767 -94.9493 269° West 264 304 4,000 -1,333 Descending FlightAware ADS-B
Sat 08:29:00 PM 29.9765 -94.9689 269° West 262 302 3,700 -878 Descending FlightAware ADS-B
Sat 08:29:27 PM 29.9775 -95.0056 272° West 251 289 3,400 -632 Descending FlightAware ADS-B
Sat 08:29:38 PM 29.9781 -95.0204 273° West 246 283 3,300 -750 Descending FlightAware ADS-B
Sat 08:29:59 PM 29.9788 -95.0475 271° West 238 274 3,000 -818 Descending FlightAware ADS-B
Sat 08:30:22 PM 29.9781 -95.0760 267° West 233 268 2,700 -789 Descending FlightAware ADS-B
Sat 08:30:37 PM 29.9771 -95.0944 266° West 228 262 2,500 -857 Descending FlightAware ADS-B
Sat 08:30:50 PM 29.9768 -95.1103 269° West 221 254 2,300 -279 Descending FlightAware ADS-B
Sat 08:31:20 PM 29.9773 -95.1445 271° West 209 241 2,300  Level FlightAware ADS-B
Sat 08:31:54 PM 29.9775 -95.1811 269° West 198 228 2,300 -429 Level FlightAware ADS-B
Sat 08:32:16 PM 29.9776 -95.2032 270° West 188 216 1,900 -1,077 Descending FlightAware ADS-B
Sat 08:32:33 PM 29.9776 -95.2184 270° West 164 189 1,600 -1,135 Descending FlightAware ADS-B
Sat 08:32:53 PM 29.9778 -95.2353 271° West 156 180 1,200 -1,000 Descending FlightAware ADS-B
Sat 08:33:09 PM 29.9777 -95.2480 269° West 150 173 1,000 -828 Descending FlightAware ADS-B
Sat 08:33:22 PM 29.9777 -95.2586 270° West 153 176 800 -720 Descending FlightAware ADS-B
Sat 08:33:34 PM 29.9776 -95.2681 269° West 149 171 700 -667 Descending FlightAware ADS-B
Sat 08:33:49 PM 29.9775 -95.2801 269° West 150 173 500 -720 Descending FlightAware ADS-B
Sat 08:33:59 PM 29.9775 -95.2883 270° West 146 168 400 -720 Descending FlightAware ADS-B
Sat 08:34:14 PM 29.9776 -95.2996 271° West 140 161 200 -800 Descending FlightAware ADS-B

Login

Don't have an account? Register now (free) for customized features, flight alerts, and more!